createdAt,value
2019-02-20T00:12:00.444Z,8.85
2019-02-20T00:35:24.832Z,8.93
2019-02-20T00:53:46.797Z,8.80
2019-02-20T01:34:32.439Z,11.63
2019-02-20T01:39:43.692Z,11.80
2019-02-20T01:44:52.961Z,12.93
2019-02-20T01:50:02.636Z,12.45
2019-02-20T01:55:07.539Z,13.10
2019-02-20T02:00:16.209Z,13.25
2019-02-20T02:05:26.979Z,13.30
2019-02-20T02:10:42.363Z,14.35
2019-02-20T02:15:40.975Z,13.70
2019-02-20T02:20:43.659Z,14.18
2019-02-20T02:25:48.428Z,13.83
2019-02-20T02:30:55.806Z,13.98
2019-02-20T02:36:12.102Z,13.75
2019-02-20T02:41:15.660Z,12.98
2019-02-20T02:46:24.169Z,13.10
2019-02-20T02:51:32.016Z,13.60
2019-02-20T02:56:34.854Z,12.95
2019-02-20T03:01:41.184Z,13.80
2019-02-20T03:06:43.793Z,13.53
2019-02-20T03:11:50.006Z,13.48
2019-02-20T03:17:01.979Z,12.80
2019-02-20T03:22:06.567Z,13.48
2019-02-20T03:27:09.359Z,13.20
2019-02-20T03:32:17.125Z,14.83
2019-02-20T03:37:22.434Z,15.72
2019-02-20T03:42:31.277Z,14.95
2019-02-20T03:47:34.633Z,16.70
2019-02-20T03:52:46.107Z,17.27
2019-02-20T03:57:51.869Z,17.65
2019-02-20T04:02:55.933Z,18.57
2019-02-20T04:08:05.563Z,17.52
2019-02-20T04:13:17.513Z,16.23
2019-02-20T04:18:20.187Z,16.97
2019-02-20T04:23:26.199Z,16.87
2019-02-20T04:28:28.535Z,17.65
2019-02-20T04:33:31.073Z,17.77
2019-02-20T04:38:34.447Z,18.35
2019-02-20T04:43:49.061Z,18.55
2019-02-20T04:50:09.633Z,17.25
2019-02-20T05:02:10.992Z,19.90
2019-02-20T05:13:48.912Z,17.90
2019-02-20T05:19:16.660Z,17.73
2019-02-20T05:24:24.725Z,19.42
2019-02-20T05:29:23.481Z,20.37
2019-02-20T05:34:36.709Z,20.37
2019-02-20T05:39:47.313Z,20.82
2019-02-20T05:44:53.262Z,21.12
2019-02-20T05:51:01.369Z,20.40
2019-02-20T05:56:13.019Z,20.80
2019-02-20T06:01:31.692Z,21.52
2019-02-20T06:07:21.317Z,22.00
2019-02-20T06:12:54.466Z,22.37
2019-02-20T06:18:27.529Z,23.12
2019-02-20T06:23:50.732Z,24.63
2019-02-20T06:29:47.080Z,23.90
2019-02-20T06:41:50.655Z,22.90
2019-02-20T06:46:53.459Z,20.40
2019-02-20T06:51:56.278Z,21.80
2019-02-20T06:56:59.485Z,22.17
2019-02-20T07:02:02.777Z,23.00
2019-02-20T07:19:16.759Z,22.80
2019-02-20T07:25:18.569Z,24.47
2019-02-20T07:43:42.518Z,21.30
2019-02-20T07:49:34.268Z,20.37
2019-02-20T07:56:03.610Z,20.77
2019-02-20T08:02:57.334Z,21.62
2019-02-20T08:12:56.266Z,24.32
2019-02-20T08:37:11.052Z,28.65
2019-02-20T08:43:03.298Z,26.12
2019-02-20T08:48:36.620Z,25.70
2019-02-20T11:30:08.090Z,16.57
2019-02-20T11:35:30.140Z,15.58
2019-02-20T14:20:54.960Z,8.90
2019-02-20T16:37:12.205Z,10.08
